Columbus Air Force Base
KCBM : now visible

Airfield :











YOU CAN JOIN US ON...

 
LOGIN :

Register | Disclaimer

   EN    FR    IT 

 









Legend :    VFR   Marginal VFR   IFR   Intensive IFR   Very Intensive IFR
Visi :
Ceiling :
>= 8 km
>= 3000ft
5 to 8 km
1000 to 3000 ft
1500m to 5 km
500 to 1000 ft
800 to 1500m
200 to 500 ft
< 800m
< 200 ft
Symbols :   Thunderstorms  Fog  Heavy snow  Heavy precipitations  Wind > 20 kt






- Airport Elevation : 219 ft


KCBM - Columbus Air Force Base

CURRENT METAR :
  • 091414Z AUTO 00000KT 10SM BKN008 OVC018 26/23 A2994 RMK AO2 RAE04 BKN V OVC SLP140 $

EXPIRED METARs :
  • 091404Z AUTO 00000KT 10SM OVC007 26/23 A2995 RMK AO2 RAE04 SLP143 $
  • 091356Z AUTO 00000KT 10SM -RA OVC007 25/23 A2995 RMK AO2 DZB42E52RAB52 SLP143 P0000 T02540234 $
  • 091342Z AUTO 00000KT 10SM -DZ OVC007 25/23 A2995 RMK AO2 DZB42 SLP143 $
  • 091326Z AUTO 00000KT 10SM OVC007 25/23 A2995 RMK AO2 SLP143 $
  • 091256Z AUTO 00000KT 10SM OVC006 25/23 A2995 RMK AO2 OVC V BKN SLP143 T02470233 $
  • 091231Z 00000KT 10SM SCT008 BKN020 25/24 A2995 RMK AO2A BKN V SCT SLP143 $
  • 091211Z 22003KT 10SM SCT007 BKN022 24/24 A2994 RMK AO2A BKN V OVC SLP140 $
  • 091156Z AUTO 20003KT 10SM BKN007 OVC022 24/24 A2994 RMK AO2 CIG 007V022 BKN V SCT SLP140 T02420235 10242 20232 52012 $
  • 091151Z AUTO 20004KT 10SM SCT007 OVC022 24/24 A2994 RMK AO2 CIG 007V022 SLP140 $
  • 091126Z AUTO 20003KT 10SM BKN007 OVC070 24/23 A2994 RMK AO2 CIG 007V070 BKN V SCT SLP140 $

TAF AMD TAF KCBM
Valid from the 09 at 12:00 until the 10 at 15:00 UTC


091200Z 0912/1015 VRB06KT 9999 BKN007 QNH2989INS
BECMG 0914/0915 VRB06KT 9999 BKN025 QNH2986INS
TEMPO 0916/0919 VRB10G15KT 9999 VCTS BKN020CB
BECMG 0921/0922 VRB06KT 9999 BKN035 QNH2995INS TX32/0922Z TN23/0912Z
KZME FIR / North America



MET'MAP, your aeronautical weather chart ! - Copyright ORBIFLY December 2007 - Disclaimer

ORBIFLY MET'MAP TEAM :

Programming & Development : Alexandra Zaïnal
Concept & original design : Baudouin d'Aumeries
Assistance for programming : Marc-Olivier Méhu
Technical & hardware support : Manuel Goepfert

Contact : metmap@orbifly.com




SOURCES & CREDITS :

   NOAA       Earth
Advisory